createdAt,value
2018-11-01T00:00:43.938Z,99.99
2018-11-01T00:01:42.793Z,99.99
2018-11-01T00:02:42.227Z,99.99
2018-11-01T00:03:42.791Z,99.99
2018-11-01T00:04:42.239Z,99.99
2018-11-01T00:05:42.646Z,99.99
2018-11-01T00:06:42.253Z,99.99
2018-11-01T00:07:44.817Z,99.99
2018-11-01T00:08:42.202Z,99.99
2018-11-01T00:09:44.258Z,99.99
2018-11-01T00:10:42.504Z,99.99
2018-11-01T00:11:42.188Z,99.99
2018-11-01T00:12:43.002Z,99.99
2018-11-01T00:13:42.402Z,99.99
2018-11-01T00:14:42.440Z,99.99
2018-11-01T00:15:44.336Z,99.99
2018-11-01T00:16:44.379Z,99.99
2018-11-01T00:17:42.430Z,99.99
2018-11-01T00:18:44.342Z,99.99
2018-11-01T00:19:44.815Z,99.99
2018-11-01T00:20:42.831Z,99.99
2018-11-01T00:21:43.416Z,99.99
2018-11-01T00:22:42.626Z,99.99
2018-11-01T00:23:42.075Z,99.99
2018-11-01T00:24:42.070Z,99.99
2018-11-01T00:25:42.335Z,99.99
2018-11-01T00:26:42.345Z,99.99
2018-11-01T00:27:42.621Z,99.99
2018-11-01T00:28:42.348Z,99.99
2018-11-01T00:29:42.401Z,99.99
2018-11-01T00:30:44.899Z,99.99
2018-11-01T00:31:42.515Z,99.99
2018-11-01T00:32:42.560Z,99.99
2018-11-01T00:33:42.460Z,99.99
2018-11-01T00:34:42.427Z,99.99
2018-11-01T00:35:42.352Z,99.99
2018-11-01T00:36:43.084Z,99.99
2018-11-01T00:37:42.701Z,99.99
2018-11-01T00:38:43.204Z,99.99
2018-11-01T00:39:42.148Z,99.99
2018-11-01T00:40:42.649Z,99.99
2018-11-01T00:41:42.487Z,99.99
2018-11-01T00:42:42.735Z,99.99
2018-11-01T00:43:42.756Z,99.99
2018-11-01T00:44:42.925Z,99.99
2018-11-01T00:45:42.285Z,99.99
2018-11-01T00:46:42.674Z,99.99
2018-11-01T00:47:43.031Z,99.99
2018-11-01T00:48:42.515Z,99.99
2018-11-01T00:49:43.036Z,99.99
2018-11-01T00:50:42.632Z,99.99
2018-11-01T00:51:43.017Z,99.99
2018-11-01T00:52:42.761Z,99.99
2018-11-01T00:53:43.032Z,99.99
2018-11-01T00:54:41.979Z,99.99
2018-11-01T00:55:42.315Z,99.99
2018-11-01T00:56:42.338Z,99.99
2018-11-01T00:57:42.237Z,99.99
2018-11-01T00:58:42.793Z,99.99
2018-11-01T00:59:42.169Z,99.99
2018-11-01T01:00:42.672Z,99.99
2018-11-01T01:01:42.686Z,99.99
2018-11-01T01:02:42.664Z,99.99
2018-11-01T01:03:42.667Z,99.99
2018-11-01T01:04:44.831Z,99.99
2018-11-01T01:05:42.792Z,99.99
2018-11-01T01:06:42.814Z,99.99
2018-11-01T01:07:42.765Z,99.99
2018-11-01T01:08:42.840Z,99.99
2018-11-01T01:09:42.475Z,99.99
2018-11-01T01:10:42.499Z,99.99
2018-11-01T01:11:42.319Z,99.99
2018-11-01T01:12:42.472Z,99.99
2018-11-01T01:13:42.836Z,99.99
2018-11-01T01:14:42.394Z,99.99
2018-11-01T01:15:42.459Z,99.99
2018-11-01T01:16:42.353Z,99.99
2018-11-01T01:17:42.415Z,99.99
2018-11-01T01:18:42.110Z,99.99
2018-11-01T01:19:42.886Z,99.99
2018-11-01T01:20:42.230Z,99.99
2018-11-01T01:21:42.524Z,99.99
2018-11-01T01:22:42.711Z,99.99
2018-11-01T01:23:42.620Z,99.99
2018-11-01T01:24:42.494Z,99.99
2018-11-01T01:25:42.482Z,99.99
2018-11-01T01:26:42.828Z,99.99
2018-11-01T01:27:42.014Z,99.99
2018-11-01T01:28:42.399Z,99.99
2018-11-01T01:29:42.565Z,99.99
2018-11-01T01:30:42.484Z,99.99
2018-11-01T01:31:42.414Z,99.99
2018-11-01T01:32:42.506Z,99.99
2018-11-01T01:33:42.510Z,99.99
2018-11-01T01:34:42.593Z,99.99
2018-11-01T01:35:42.761Z,99.99
2018-11-01T01:36:43.040Z,99.99
2018-11-01T01:37:42.282Z,99.99
2018-11-01T01:38:42.333Z,99.99
2018-11-01T01:39:42.832Z,99.99
2018-11-01T01:40:42.981Z,99.99
2018-11-01T01:41:42.407Z,99.99
2018-11-01T01:42:42.662Z,99.99
2018-11-01T01:43:42.019Z,99.99
2018-11-01T01:44:42.603Z,99.99
2018-11-01T01:45:43.104Z,99.99
2018-11-01T01:46:42.402Z,99.99
2018-11-01T01:47:42.763Z,99.99
2018-11-01T01:48:42.980Z,99.99
2018-11-01T01:49:42.520Z,99.99
2018-11-01T01:50:42.074Z,99.99
2018-11-01T01:51:42.836Z,99.85
2018-11-01T01:52:42.519Z,99.85
2018-11-01T01:53:42.461Z,99.85
2018-11-01T01:54:42.789Z,99.27
2018-11-01T01:55:42.349Z,99.08
2018-11-01T01:56:42.357Z,99.27
2018-11-01T01:57:42.397Z,98.80
2018-11-01T01:58:42.626Z,99.18
2018-11-01T01:59:41.856Z,99.18
2018-11-01T02:00:42.839Z,99.56
2018-11-01T02:01:41.895Z,98.22
2018-11-01T02:02:42.382Z,98.42
2018-11-01T02:03:42.397Z,98.13
2018-11-01T02:04:42.342Z,98.13
2018-11-01T02:05:42.852Z,97.85
2018-11-01T02:06:42.347Z,98.13
2018-11-01T02:07:42.431Z,98.42
2018-11-01T02:08:42.425Z,99.08
2018-11-01T02:09:42.402Z,98.22
2018-11-01T02:10:42.413Z,98.42
2018-11-01T02:11:42.446Z,98.90
2018-11-01T02:12:42.379Z,98.42
2018-11-01T02:13:42.380Z,98.42
2018-11-01T02:14:42.440Z,98.42
2018-11-01T02:15:42.388Z,98.22
2018-11-01T02:16:42.743Z,97.85
2018-11-01T02:17:41.910Z,98.51
2018-11-01T02:18:42.850Z,97.85
2018-11-01T02:19:42.479Z,97.46
2018-11-01T02:20:42.848Z,97.66
2018-11-01T02:21:44.552Z,97.75
2018-11-01T02:22:42.413Z,97.85
2018-11-01T02:23:44.024Z,97.27
2018-11-01T02:24:43.926Z,97.75
2018-11-01T02:25:41.916Z,97.08
2018-11-01T02:26:43.980Z,96.80
2018-11-01T02:27:43.861Z,96.61
2018-11-01T02:28:43.953Z,97.08
2018-11-01T02:29:43.860Z,96.41
2018-11-01T02:30:43.955Z,96.41
2018-11-01T02:31:43.962Z,96.70
2018-11-01T02:32:44.273Z,96.61
2018-11-01T02:33:44.383Z,96.13
2018-11-01T02:34:44.021Z,95.94
2018-11-01T02:35:43.885Z,96.22
2018-11-01T02:36:44.008Z,96.98
2018-11-01T02:37:44.037Z,96.89
2018-11-01T02:38:44.015Z,96.89
2018-11-01T02:39:42.389Z,96.32
2018-11-01T02:40:44.003Z,95.94
2018-11-01T02:41:41.818Z,96.41
2018-11-01T02:42:42.298Z,96.80
2018-11-01T02:43:42.380Z,96.98
2018-11-01T02:44:42.463Z,96.41
2018-11-01T02:45:42.481Z,96.13
2018-11-01T02:46:42.308Z,96.22
2018-11-01T02:47:42.178Z,96.32
2018-11-01T02:48:42.462Z,96.13
2018-11-01T02:49:42.392Z,96.80
2018-11-01T02:50:42.346Z,96.70
2018-11-01T02:51:42.254Z,96.32
2018-11-01T02:52:42.186Z,96.22
2018-11-01T02:53:42.311Z,96.22
2018-11-01T02:54:42.402Z,95.94
2018-11-01T02:55:42.329Z,95.56
2018-11-01T02:56:41.784Z,95.94
2018-11-01T02:57:42.431Z,96.32
2018-11-01T02:58:42.438Z,96.70
2018-11-01T02:59:41.853Z,96.32
2018-11-01T03:00:42.322Z,95.56
2018-11-01T03:01:41.709Z,95.94
2018-11-01T03:02:42.593Z,95.75
2018-11-01T03:03:42.529Z,96.32
2018-11-01T03:04:42.200Z,96.13
2018-11-01T03:05:42.164Z,95.84
2018-11-01T03:06:41.918Z,95.75
2018-11-01T03:07:42.442Z,96.03
2018-11-01T03:08:42.506Z,96.75
2018-11-01T03:09:42.311Z,96.61
2018-11-01T03:10:42.341Z,96.94
2018-11-01T03:11:42.411Z,96.56
2018-11-01T03:12:42.403Z,96.46
2018-11-01T03:13:42.341Z,97.03
2018-11-01T03:14:42.401Z,96.84
2018-11-01T03:15:42.283Z,96.46
2018-11-01T03:16:42.471Z,96.65
2018-11-01T03:17:42.157Z,96.56
2018-11-01T03:18:42.345Z,96.08
2018-11-01T03:19:42.320Z,95.70
2018-11-01T03:20:41.762Z,96.84
2018-11-01T03:21:42.541Z,96.56
2018-11-01T03:22:41.793Z,96.94
2018-11-01T03:23:42.321Z,96.94
2018-11-01T03:24:41.975Z,97.03
2018-11-01T03:25:42.549Z,96.94
2018-11-01T03:26:42.481Z,96.84
2018-11-01T03:27:42.024Z,96.27
2018-11-01T03:28:42.083Z,96.84
2018-11-01T03:29:41.651Z,96.08
2018-11-01T03:30:42.039Z,96.75
2018-11-01T03:31:41.906Z,96.75
2018-11-01T03:32:41.967Z,96.65
2018-11-01T03:33:42.012Z,97.03
2018-11-01T03:34:42.189Z,96.65
2018-11-01T03:35:41.716Z,96.94
2018-11-01T03:36:42.487Z,96.46
2018-11-01T03:37:42.440Z,96.94
2018-11-01T03:38:42.230Z,97.61
2018-11-01T03:39:42.058Z,97.32
2018-11-01T03:40:42.174Z,97.80
2018-11-01T03:41:41.660Z,98.08
2018-11-01T03:42:42.033Z,97.99
2018-11-01T03:43:42.424Z,97.99
2018-11-01T03:44:42.130Z,98.08
2018-11-01T03:45:42.517Z,98.27
2018-11-01T03:46:42.355Z,97.70
2018-11-01T03:47:42.159Z,97.41
2018-11-01T03:48:41.952Z,97.70
2018-11-01T03:49:41.939Z,97.99
2018-11-01T03:50:42.078Z,97.99
2018-11-01T03:51:41.939Z,97.89
2018-11-01T03:52:41.919Z,98.08
2018-11-01T03:53:41.981Z,97.99
2018-11-01T03:54:41.883Z,97.80
2018-11-01T03:55:41.950Z,97.99
2018-11-01T03:56:42.007Z,97.61
2018-11-01T03:57:41.951Z,97.41
2018-11-01T03:58:41.923Z,96.75
2018-11-01T03:59:41.967Z,96.84
2018-11-01T04:00:42.334Z,96.94
2018-11-01T04:01:42.062Z,97.17
2018-11-01T04:02:42.055Z,97.22
2018-11-01T04:03:42.303Z,97.80
2018-11-01T04:04:42.439Z,97.22
2018-11-01T04:05:42.021Z,97.41
2018-11-01T04:06:42.041Z,97.22
2018-11-01T04:07:41.793Z,97.80
2018-11-01T04:08:42.250Z,96.80
2018-11-01T04:09:42.503Z,97.32
2018-11-01T04:10:41.526Z,97.70
2018-11-01T04:11:41.969Z,97.70
2018-11-01T04:12:41.965Z,97.32
2018-11-01T04:13:42.057Z,97.70
2018-11-01T04:14:42.000Z,97.46
2018-11-01T04:15:41.956Z,97.61
2018-11-01T04:16:42.029Z,97.65
2018-11-01T04:17:41.950Z,97.41
2018-11-01T04:18:41.981Z,97.70
2018-11-01T04:19:41.965Z,97.27
2018-11-01T04:20:42.393Z,97.56
2018-11-01T04:21:41.511Z,97.36
2018-11-01T04:22:41.873Z,97.46
2018-11-01T04:23:42.352Z,97.56
2018-11-01T04:24:41.503Z,97.46
2018-11-01T04:25:42.013Z,97.46
2018-11-01T04:26:41.952Z,97.65
2018-11-01T04:27:41.911Z,97.94
2018-11-01T04:28:41.989Z,98.03
2018-11-01T04:29:42.374Z,97.84
2018-11-01T04:30:41.442Z,97.75
2018-11-01T04:31:41.944Z,97.84
2018-11-01T04:32:43.398Z,98.13
2018-11-01T04:33:43.574Z,97.56
2018-11-01T04:34:43.418Z,96.98
2018-11-01T04:35:43.454Z,97.94
2018-11-01T04:36:43.435Z,97.94
2018-11-01T04:37:43.454Z,97.94
2018-11-01T04:38:43.498Z,97.84
2018-11-01T04:39:43.472Z,97.94
2018-11-01T04:40:43.642Z,97.65
2018-11-01T04:41:43.517Z,97.65
2018-11-01T04:42:43.465Z,98.99
2018-11-01T04:43:43.509Z,98.89
2018-11-01T04:44:43.513Z,98.89
2018-11-01T04:45:41.544Z,99.18
2018-11-01T04:46:43.455Z,99.27
2018-11-01T04:47:43.578Z,98.70
2018-11-01T04:48:41.993Z,98.22
2018-11-01T04:49:43.478Z,98.41
2018-11-01T04:50:42.071Z,98.89
2018-11-01T04:51:41.105Z,98.89
2018-11-01T04:52:41.366Z,99.27
2018-11-01T04:53:41.851Z,99.18
2018-11-01T04:54:41.915Z,99.18
2018-11-01T04:55:41.904Z,99.08
2018-11-01T04:56:42.471Z,99.18
2018-11-01T04:57:41.573Z,98.51
2018-11-01T04:58:42.372Z,98.51
2018-11-01T04:59:41.199Z,99.18
2018-11-01T05:00:41.705Z,99.08
2018-11-01T05:01:41.944Z,98.99
2018-11-01T05:02:42.074Z,98.79
2018-11-01T05:03:41.178Z,98.79
2018-11-01T05:04:41.926Z,98.89
2018-11-01T05:05:42.076Z,98.89
2018-11-01T05:06:42.119Z,98.79
2018-11-01T05:07:41.936Z,99.99
2018-11-01T05:08:41.909Z,99.99
2018-11-01T05:09:41.984Z,99.27
2018-11-01T05:10:41.977Z,99.18
2018-11-01T05:11:42.363Z,99.08
2018-11-01T05:12:41.594Z,98.79
2018-11-01T05:13:41.632Z,99.18
2018-11-01T05:14:41.756Z,98.70
2018-11-01T05:15:42.075Z,99.08
2018-11-01T05:16:42.382Z,98.99
2018-11-01T05:17:41.938Z,99.08
2018-11-01T05:18:42.035Z,99.08
2018-11-01T05:19:41.955Z,99.65
2018-11-01T05:20:42.145Z,99.94
2018-11-01T05:21:41.988Z,99.89
2018-11-01T05:22:41.576Z,99.99
2018-11-01T05:23:41.217Z,99.99
2018-11-01T05:24:41.659Z,99.94
2018-11-01T05:25:41.576Z,99.27
2018-11-01T05:26:41.525Z,99.08
2018-11-01T05:27:41.756Z,98.99
2018-11-01T05:28:41.090Z,99.08
2018-11-01T05:29:41.462Z,99.18
2018-11-01T05:30:41.956Z,99.99
2018-11-01T05:31:41.953Z,99.99
2018-11-01T05:32:41.920Z,99.99
2018-11-01T05:33:41.681Z,99.99
2018-11-01T05:34:41.879Z,99.99
2018-11-01T05:35:41.948Z,99.99
2018-11-01T05:36:41.883Z,99.99
2018-11-01T05:37:41.711Z,99.99
2018-11-01T05:38:42.078Z,99.99
2018-11-01T05:39:41.926Z,99.99
2018-11-01T05:40:42.281Z,99.99
2018-11-01T05:41:41.868Z,99.99
2018-11-01T05:42:41.922Z,99.99
2018-11-01T05:43:42.105Z,99.99
2018-11-01T05:44:41.592Z,99.99
2018-11-01T05:45:41.634Z,99.99
2018-11-01T05:46:41.526Z,99.99
2018-11-01T05:47:41.212Z,99.99
2018-11-01T05:48:41.755Z,99.99
2018-11-01T05:49:41.725Z,99.99
2018-11-01T05:50:41.766Z,99.99
2018-11-01T05:51:41.529Z,99.99
2018-11-01T05:52:41.964Z,99.99
2018-11-01T05:53:40.989Z,99.99
2018-11-01T05:54:40.958Z,99.99
2018-11-01T05:55:41.359Z,99.99
2018-11-01T05:56:40.917Z,99.99
2018-11-01T05:57:41.534Z,99.99
2018-11-01T05:58:41.369Z,99.99
2018-11-01T05:59:41.351Z,99.99
2018-11-01T06:00:40.928Z,99.99
2018-11-01T06:01:41.527Z,99.99
2018-11-01T06:02:41.453Z,99.99
2018-11-01T06:03:41.823Z,99.99
2018-11-01T06:04:41.461Z,99.99
2018-11-01T06:05:41.680Z,99.99
2018-11-01T06:06:41.628Z,99.99
2018-11-01T06:07:41.985Z,99.99
2018-11-01T06:08:41.486Z,99.99
2018-11-01T06:09:41.004Z,99.99
2018-11-01T06:10:41.694Z,99.99
2018-11-01T06:11:41.779Z,99.99
2018-11-01T06:12:41.534Z,99.99
2018-11-01T06:13:41.327Z,99.99
2018-11-01T06:14:41.282Z,99.99
2018-11-01T06:15:41.347Z,99.99
2018-11-01T06:16:41.632Z,99.99
2018-11-01T06:17:41.336Z,99.99
2018-11-01T06:18:41.329Z,99.99
2018-11-01T06:19:41.363Z,99.99
2018-11-01T06:20:41.502Z,99.99
2018-11-01T06:21:41.352Z,99.99
2018-11-01T06:22:41.355Z,99.99
2018-11-01T06:23:41.044Z,99.99
2018-11-01T06:24:41.562Z,99.99
2018-11-01T06:25:41.891Z,99.99
2018-11-01T06:26:41.402Z,99.99
2018-11-01T06:27:43.190Z,99.99
2018-11-01T06:28:43.035Z,99.99
2018-11-01T06:29:41.534Z,99.99
2018-11-01T06:30:41.135Z,99.99
2018-11-01T06:31:43.148Z,99.99
2018-11-01T06:32:40.825Z,99.99
2018-11-01T06:33:41.300Z,99.99
2018-11-01T06:34:43.391Z,99.99
2018-11-01T06:35:41.401Z,99.99
2018-11-01T06:36:42.981Z,99.99
2018-11-01T06:37:43.004Z,99.99
2018-11-01T06:38:42.938Z,99.99
2018-11-01T06:39:43.006Z,99.99
2018-11-01T06:40:43.373Z,99.99
2018-11-01T06:41:41.086Z,99.99
2018-11-01T06:42:43.024Z,99.99
2018-11-01T06:43:42.970Z,99.99
2018-11-01T06:44:41.461Z,99.99
2018-11-01T06:45:41.150Z,99.99
2018-11-01T06:46:40.932Z,99.99
2018-11-01T06:47:41.438Z,99.99
2018-11-01T06:48:41.447Z,99.99
2018-11-01T06:49:41.469Z,99.99
2018-11-01T06:50:41.341Z,99.99
2018-11-01T06:51:40.835Z,99.99
2018-11-01T06:52:41.382Z,99.99
2018-11-01T06:53:41.343Z,99.99
2018-11-01T06:54:41.286Z,99.99
2018-11-01T06:55:41.252Z,99.99
2018-11-01T06:56:41.597Z,99.99
2018-11-01T06:57:41.349Z,99.99
2018-11-01T06:58:40.678Z,99.99
2018-11-01T06:59:41.016Z,99.99
2018-11-01T07:00:40.936Z,99.99
2018-11-01T07:01:41.023Z,99.99
2018-11-01T07:02:40.667Z,99.99
2018-11-01T07:03:41.035Z,99.99
2018-11-01T07:04:40.660Z,99.99
2018-11-01T07:05:41.386Z,99.99
2018-11-01T07:06:41.884Z,99.99
2018-11-01T07:07:41.349Z,99.99
2018-11-01T07:08:40.949Z,99.99
2018-11-01T07:09:40.911Z,99.99
2018-11-01T07:10:41.048Z,99.99
2018-11-01T07:11:41.157Z,99.99
2018-11-01T07:12:41.094Z,99.99
2018-11-01T07:13:41.097Z,99.99
2018-11-01T07:14:41.111Z,99.99
2018-11-01T07:15:41.101Z,99.99
2018-11-01T07:16:41.074Z,99.99
2018-11-01T07:17:41.317Z,99.99
2018-11-01T07:18:41.280Z,99.99
2018-11-01T07:19:41.050Z,99.99
2018-11-01T07:20:41.470Z,99.99
2018-11-01T07:21:41.199Z,99.99
2018-11-01T07:22:41.600Z,99.99
2018-11-01T07:23:40.838Z,99.99
2018-11-01T07:24:40.624Z,99.99
2018-11-01T07:25:42.991Z,99.99
2018-11-01T07:26:41.274Z,99.99
2018-11-01T07:27:40.878Z,99.99
2018-11-01T07:28:40.883Z,99.99
2018-11-01T07:29:40.902Z,99.99
2018-11-01T07:30:41.144Z,99.99
2018-11-01T07:31:40.956Z,99.99
2018-11-01T07:32:41.023Z,99.99
2018-11-01T07:33:40.862Z,99.99
2018-11-01T07:34:41.102Z,99.99
2018-11-01T07:35:41.475Z,99.99
2018-11-01T07:36:41.385Z,99.99
2018-11-01T07:37:40.896Z,99.99
2018-11-01T07:38:41.333Z,99.99
2018-11-01T07:39:40.890Z,99.99
2018-11-01T07:40:41.097Z,99.99
2018-11-01T07:41:41.297Z,99.99
2018-11-01T07:42:41.483Z,99.99
2018-11-01T07:43:41.361Z,99.99
2018-11-01T07:44:41.333Z,99.99
